createdAt,value
2019-03-29T00:02:45.640Z,84.41
2019-03-29T00:05:34.170Z,85.71
2019-03-29T00:08:23.061Z,85.11
2019-03-29T00:11:11.325Z,85.52
2019-03-29T00:14:00.151Z,85.09
2019-03-29T00:16:48.645Z,84.87
2019-03-29T00:19:37.245Z,85.90
2019-03-29T00:22:25.338Z,84.30
2019-03-29T00:25:14.155Z,85.38
2019-03-29T00:28:02.929Z,83.92
2019-03-29T00:30:51.371Z,84.48
2019-03-29T00:33:40.288Z,85.92
2019-03-29T00:36:28.998Z,86.06
2019-03-29T00:39:17.412Z,84.19
2019-03-29T00:42:05.702Z,85.22
2019-03-29T00:44:54.461Z,85.03
2019-03-29T00:47:42.731Z,85.31
2019-03-29T00:50:30.822Z,85.28
2019-03-29T00:53:19.379Z,86.45
2019-03-29T00:56:08.492Z,88.73
2019-03-29T00:58:57.499Z,89.19
2019-03-29T01:01:45.526Z,90.99
2019-03-29T01:04:34.851Z,90.20
2019-03-29T01:07:23.822Z,90.21
2019-03-29T01:10:12.406Z,89.19
2019-03-29T01:13:01.275Z,90.10
2019-03-29T01:15:50.261Z,89.07
2019-03-29T01:18:38.811Z,88.75
2019-03-29T01:21:27.724Z,89.33
2019-03-29T01:24:16.611Z,89.53
2019-03-29T01:27:05.091Z,89.17
2019-03-29T01:29:54.341Z,88.45
2019-03-29T01:32:43.189Z,88.97
2019-03-29T01:35:31.535Z,90.62
2019-03-29T01:38:22.462Z,91.69
2019-03-29T01:41:10.669Z,91.79
2019-03-29T01:43:59.646Z,91.25
2019-03-29T01:46:48.341Z,91.66
2019-03-29T01:49:37.006Z,91.19
2019-03-29T01:52:25.499Z,91.01
2019-03-29T01:55:14.658Z,91.04
2019-03-29T01:58:04.682Z,91.72
2019-03-29T02:00:53.734Z,92.88
2019-03-29T02:03:42.101Z,91.47
2019-03-29T02:06:30.564Z,90.38
2019-03-29T02:09:19.378Z,90.87
2019-03-29T02:12:07.955Z,92.36
2019-03-29T02:14:56.063Z,91.56
2019-03-29T02:17:44.275Z,90.03
2019-03-29T02:20:32.483Z,91.50
2019-03-29T02:23:21.780Z,92.41
2019-03-29T02:26:09.959Z,93.16
2019-03-29T02:28:58.919Z,95.10
2019-03-29T02:31:46.991Z,95.90
2019-03-29T02:34:35.462Z,93.54
2019-03-29T02:37:23.917Z,92.50
2019-03-29T02:40:12.697Z,91.93
2019-03-29T02:43:01.445Z,92.40
2019-03-29T02:45:50.132Z,93.66
2019-03-29T02:48:38.615Z,92.27
2019-03-29T02:51:27.544Z,91.61
2019-03-29T02:54:16.135Z,91.28
2019-03-29T02:57:04.454Z,91.04
2019-03-29T02:59:53.218Z,91.12
2019-03-29T03:02:42.288Z,94.44
2019-03-29T03:05:30.553Z,94.69
2019-03-29T03:08:19.202Z,95.23
2019-03-29T03:11:07.890Z,95.77
2019-03-29T03:13:56.453Z,93.64
2019-03-29T03:16:45.112Z,91.97
2019-03-29T03:19:33.343Z,90.99
2019-03-29T03:22:21.785Z,90.37
2019-03-29T03:25:10.498Z,91.01
2019-03-29T03:27:58.721Z,90.11
2019-03-29T03:30:47.552Z,91.43
2019-03-29T03:33:36.147Z,92.93
2019-03-29T03:36:24.232Z,94.32
2019-03-29T03:39:30.184Z,93.47
2019-03-29T03:42:02.911Z,93.02
2019-03-29T03:44:52.500Z,95.19
2019-03-29T03:47:41.168Z,96.12
2019-03-29T03:50:36.057Z,95.89
2019-03-29T03:53:24.878Z,97.25
2019-03-29T03:56:14.087Z,97.45
2019-03-29T03:59:03.067Z,96.65
2019-03-29T04:01:51.782Z,95.82
2019-03-29T04:04:40.898Z,95.03
2019-03-29T04:07:29.200Z,94.52
2019-03-29T04:10:17.763Z,94.81
2019-03-29T04:13:06.104Z,92.54
2019-03-29T04:15:54.189Z,93.68
2019-03-29T04:18:42.301Z,93.31
2019-03-29T04:21:30.916Z,94.72
2019-03-29T04:24:19.120Z,96.10
2019-03-29T04:27:07.626Z,94.65
2019-03-29T04:29:56.111Z,93.91
2019-03-29T04:32:44.719Z,93.07
2019-03-29T04:35:33.601Z,93.17
2019-03-29T04:38:22.390Z,92.48
2019-03-29T04:41:11.098Z,91.78
2019-03-29T04:43:59.926Z,90.79
2019-03-29T04:46:49.922Z,90.75
2019-03-29T04:49:38.519Z,91.73
2019-03-29T04:52:26.930Z,92.96
2019-03-29T04:55:16.158Z,90.29
2019-03-29T04:58:05.149Z,88.89
2019-03-29T05:00:53.961Z,89.30
2019-03-29T05:03:42.411Z,90.17
2019-03-29T05:06:31.239Z,87.34
2019-03-29T05:09:19.088Z,86.33
2019-03-29T05:12:07.614Z,87.35
2019-03-29T05:14:56.473Z,87.76
2019-03-29T05:17:46.117Z,88.56
2019-03-29T05:20:34.610Z,89.81
2019-03-29T05:23:24.566Z,89.11
2019-03-29T05:26:13.091Z,87.70
2019-03-29T05:29:01.998Z,84.07
2019-03-29T05:31:53.550Z,85.83
2019-03-29T05:34:40.786Z,86.77
2019-03-29T05:37:30.191Z,85.86
2019-03-29T05:40:18.281Z,84.39
2019-03-29T05:43:06.450Z,83.99
2019-03-29T05:45:56.271Z,85.05
2019-03-29T05:48:45.887Z,86.30
2019-03-29T05:51:34.411Z,83.72
2019-03-29T05:54:22.862Z,81.72
2019-03-29T05:57:11.398Z,79.35
2019-03-29T05:59:59.929Z,79.01
2019-03-29T06:02:48.995Z,80.17
2019-03-29T06:05:37.713Z,77.55
2019-03-29T06:08:25.727Z,75.42
2019-03-29T06:11:14.158Z,76.59
2019-03-29T06:14:02.691Z,74.62
2019-03-29T06:16:51.524Z,74.05
2019-03-29T06:19:39.643Z,72.60
2019-03-29T06:22:27.950Z,71.54
2019-03-29T06:25:16.844Z,70.36
2019-03-29T06:28:05.475Z,69.48
2019-03-29T06:30:53.970Z,69.11
2019-03-29T06:33:44.502Z,68.42
2019-03-29T06:36:31.964Z,67.80
2019-03-29T06:39:21.529Z,67.52
2019-03-29T06:42:09.683Z,67.21
2019-03-29T06:44:58.608Z,65.91
2019-03-29T06:47:47.442Z,65.48
2019-03-29T06:50:37.349Z,66.18
2019-03-29T06:53:26.178Z,65.55
2019-03-29T06:56:15.138Z,64.71
2019-03-29T06:59:04.319Z,63.40
2019-03-29T07:01:52.885Z,64.11
2019-03-29T07:04:41.357Z,62.05
2019-03-29T07:07:30.266Z,60.40
2019-03-29T07:10:18.173Z,61.93
2019-03-29T07:13:06.982Z,59.87
2019-03-29T07:15:55.759Z,56.43
2019-03-29T07:18:43.831Z,53.03
2019-03-29T07:21:32.303Z,51.69
2019-03-29T07:24:20.854Z,46.09
2019-03-29T07:27:09.844Z,43.58
2019-03-29T07:29:58.126Z,44.97
2019-03-29T07:32:47.034Z,45.13
2019-03-29T07:35:34.903Z,44.67
2019-03-29T07:38:23.927Z,42.07
2019-03-29T07:41:11.898Z,47.39
2019-03-29T07:44:00.858Z,42.21
2019-03-29T07:46:49.565Z,44.17
2019-03-29T07:49:38.777Z,42.42
2019-03-29T07:52:28.274Z,42.23
2019-03-29T07:55:16.081Z,41.23
2019-03-29T07:58:05.719Z,43.32
2019-03-29T08:00:54.170Z,41.17
2019-03-29T08:03:42.756Z,40.24
2019-03-29T08:06:31.412Z,41.19
2019-03-29T08:09:22.534Z,42.04
2019-03-29T08:12:09.185Z,42.35
2019-03-29T08:14:57.438Z,39.96
2019-03-29T08:17:45.478Z,42.65
2019-03-29T08:20:43.230Z,39.84
2019-03-29T08:23:28.630Z,39.90
2019-03-29T08:26:15.007Z,39.23
2019-03-29T08:29:03.537Z,39.40
2019-03-29T08:31:55.495Z,38.70
2019-03-29T08:34:43.313Z,39.90
2019-03-29T08:37:32.096Z,39.35
2019-03-29T08:40:20.685Z,39.83
2019-03-29T08:43:09.434Z,37.46
2019-03-29T08:45:58.054Z,37.18
2019-03-29T08:48:46.384Z,37.30
2019-03-29T08:51:34.867Z,38.07
2019-03-29T08:54:24.238Z,38.04
2019-03-29T08:57:12.302Z,37.61
2019-03-29T09:00:01.062Z,37.81
2019-03-29T09:02:49.663Z,37.79
2019-03-29T09:05:39.244Z,36.49
2019-03-29T09:08:28.912Z,37.18
2019-03-29T09:11:17.715Z,36.93
2019-03-29T09:14:12.543Z,38.58
2019-03-29T09:17:00.954Z,35.34
2019-03-29T09:19:49.295Z,36.29
2019-03-29T09:22:38.081Z,35.74
2019-03-29T09:25:26.487Z,35.31
2019-03-29T09:28:15.618Z,36.28
2019-03-29T09:31:04.163Z,35.89
2019-03-29T09:33:52.280Z,35.46
2019-03-29T09:36:40.661Z,36.12
2019-03-29T09:39:29.604Z,35.15
2019-03-29T09:42:28.320Z,32.95
2019-03-29T09:45:07.940Z,33.42
2019-03-29T09:47:56.849Z,33.15
2019-03-29T09:50:50.122Z,31.14
2019-03-29T09:53:35.974Z,32.13
2019-03-29T09:56:37.632Z,31.83
2019-03-29T09:59:16.426Z,32.96
2019-03-29T10:02:03.731Z,32.90
2019-03-29T10:04:53.677Z,32.46
2019-03-29T10:07:42.167Z,34.25
2019-03-29T10:10:34.214Z,30.05
2019-03-29T10:13:20.612Z,32.73
2019-03-29T10:16:08.591Z,30.85
2019-03-29T10:18:56.492Z,30.81
2019-03-29T10:21:47.411Z,29.75
2019-03-29T10:24:35.799Z,32.81
2019-03-29T10:27:23.963Z,31.23
2019-03-29T10:30:12.553Z,29.28
2019-03-29T10:33:01.322Z,30.70
2019-03-29T10:35:52.503Z,31.64
2019-03-29T10:38:40.088Z,29.32
2019-03-29T10:41:29.267Z,28.93
2019-03-29T10:44:18.134Z,28.91
2019-03-29T10:47:06.284Z,28.59
2019-03-29T10:49:54.756Z,31.50
2019-03-29T10:52:42.563Z,30.21
2019-03-29T10:55:32.040Z,28.95
2019-03-29T10:58:20.234Z,30.25
2019-03-29T11:01:08.678Z,28.21
2019-03-29T11:03:57.390Z,29.60
2019-03-29T11:06:46.188Z,29.12
2019-03-29T11:09:36.912Z,29.51
2019-03-29T11:12:24.311Z,30.00
2019-03-29T11:15:13.085Z,28.54
2019-03-29T11:18:01.594Z,31.07
2019-03-29T11:20:50.054Z,28.84
2019-03-29T11:23:38.966Z,29.19
2019-03-29T11:26:27.295Z,30.44
2019-03-29T11:29:17.035Z,27.35
2019-03-29T11:32:06.095Z,28.73
2019-03-29T11:34:54.582Z,27.29
2019-03-29T11:37:43.107Z,27.78
2019-03-29T11:40:31.988Z,27.93
2019-03-29T11:43:26.463Z,27.44
2019-03-29T11:46:09.783Z,29.17
2019-03-29T11:48:58.130Z,28.03
2019-03-29T11:51:46.665Z,29.19
2019-03-29T11:54:35.229Z,29.00
2019-03-29T11:57:24.590Z,29.00
2019-03-29T12:00:13.628Z,28.64
2019-03-29T12:03:03.082Z,28.83
2019-03-29T12:05:52.054Z,28.80
2019-03-29T12:08:41.003Z,27.59
2019-03-29T12:11:29.670Z,26.42
2019-03-29T12:14:18.250Z,28.13
2019-03-29T12:17:06.433Z,26.90
2019-03-29T12:19:55.038Z,25.95
2019-03-29T12:22:45.350Z,27.76
2019-03-29T12:25:34.113Z,26.11
2019-03-29T12:28:22.912Z,28.29
2019-03-29T12:31:11.003Z,28.44
2019-03-29T12:34:00.578Z,27.62
2019-03-29T12:36:49.063Z,28.01
2019-03-29T12:39:37.947Z,26.10
2019-03-29T12:42:26.072Z,26.34
2019-03-29T12:45:14.570Z,25.17
2019-03-29T12:48:03.094Z,26.57
2019-03-29T12:50:52.120Z,27.49
2019-03-29T12:53:40.495Z,26.96
2019-03-29T12:56:28.602Z,25.87
2019-03-29T12:59:17.752Z,26.09
2019-03-29T13:01:48.401Z,26.69
2019-03-29T13:04:18.983Z,24.52
2019-03-29T13:06:49.124Z,25.56
2019-03-29T13:09:19.712Z,25.53
2019-03-29T13:11:49.881Z,25.49
2019-03-29T13:14:20.370Z,26.43
2019-03-29T13:16:50.467Z,24.51
2019-03-29T13:19:20.763Z,24.74
2019-03-29T13:21:50.858Z,27.13
2019-03-29T13:24:20.949Z,26.95
2019-03-29T13:26:54.252Z,27.04
2019-03-29T13:29:23.604Z,26.97
2019-03-29T13:31:53.755Z,26.13
2019-03-29T13:34:24.917Z,26.71
2019-03-29T13:36:55.575Z,27.13
2019-03-29T13:39:25.673Z,27.25
2019-03-29T13:41:55.852Z,26.89
2019-03-29T13:44:28.323Z,27.93
2019-03-29T13:46:57.642Z,27.22
2019-03-29T13:49:27.790Z,26.23
2019-03-29T13:51:57.883Z,26.28
2019-03-29T13:54:27.993Z,24.85
2019-03-29T13:56:58.569Z,24.32
2019-03-29T13:59:31.711Z,22.59
2019-03-29T14:02:00.530Z,22.25
2019-03-29T14:04:30.679Z,22.12
2019-03-29T14:07:01.290Z,22.25
2019-03-29T14:09:31.437Z,21.95
2019-03-29T14:12:02.275Z,22.14
2019-03-29T14:14:37.976Z,23.07
2019-03-29T14:17:04.549Z,21.60
2019-03-29T14:19:34.651Z,21.60
2019-03-29T14:22:04.757Z,21.44
2019-03-29T14:24:35.274Z,21.08
2019-03-29T14:27:06.954Z,21.07
2019-03-29T14:29:37.067Z,21.95
2019-03-29T14:32:07.670Z,22.29
2019-03-29T14:34:37.754Z,22.95
2019-03-29T14:37:07.839Z,22.74
2019-03-29T14:39:38.680Z,23.57
2019-03-29T14:42:08.770Z,21.94
2019-03-29T14:44:51.683Z,22.44
2019-03-29T14:47:10.657Z,22.79
2019-03-29T14:49:40.882Z,22.46
2019-03-29T14:52:10.983Z,21.39
2019-03-29T14:54:41.107Z,20.62
2019-03-29T14:57:11.215Z,21.13
2019-03-29T14:59:41.410Z,22.94
2019-03-29T15:02:11.612Z,25.38
2019-03-29T15:04:41.692Z,29.18
2019-03-29T15:07:12.127Z,30.12
2019-03-29T15:09:42.368Z,30.03
2019-03-29T15:12:12.840Z,30.95
2019-03-29T15:14:42.947Z,32.21
2019-03-29T15:17:13.347Z,32.80
2019-03-29T15:19:43.427Z,31.86
2019-03-29T15:22:13.523Z,33.16
2019-03-29T15:24:44.018Z,33.42
2019-03-29T15:27:14.127Z,33.86
2019-03-29T15:29:44.242Z,34.37
2019-03-29T15:32:14.435Z,34.51
2019-03-29T15:34:44.882Z,34.07
2019-03-29T15:37:14.981Z,34.50
2019-03-29T15:39:45.126Z,35.49
2019-03-29T15:42:15.223Z,36.15
2019-03-29T15:44:45.315Z,36.49
2019-03-29T15:47:15.483Z,35.92
2019-03-29T15:49:55.848Z,35.65
2019-03-29T15:52:18.820Z,36.00
2019-03-29T15:54:48.948Z,36.29
2019-03-29T15:57:19.058Z,36.78
2019-03-29T15:59:49.692Z,36.80
2019-03-29T16:02:19.912Z,36.93
2019-03-29T16:04:50.422Z,37.39
2019-03-29T16:07:20.517Z,37.12
2019-03-29T16:09:50.650Z,37.54
2019-03-29T16:12:20.734Z,36.82
2019-03-29T16:14:51.215Z,37.53
2019-03-29T16:17:21.389Z,37.52
2019-03-29T16:19:51.484Z,38.05
2019-03-29T16:22:21.570Z,38.12
2019-03-29T16:24:51.712Z,39.00
2019-03-29T16:27:24.834Z,39.54
2019-03-29T16:29:53.998Z,39.65
2019-03-29T16:32:24.186Z,40.33
2019-03-29T16:34:54.747Z,40.26
2019-03-29T16:37:24.844Z,39.78
2019-03-29T16:39:55.001Z,39.53
2019-03-29T16:42:25.817Z,40.64
2019-03-29T16:44:55.919Z,40.73
2019-03-29T16:47:26.095Z,41.03
2019-03-29T16:49:56.594Z,41.10
2019-03-29T16:52:27.048Z,40.96
2019-03-29T16:54:57.632Z,42.25
2019-03-29T16:57:27.718Z,41.94
2019-03-29T16:59:57.898Z,42.79
2019-03-29T17:02:28.487Z,42.06
2019-03-29T17:04:58.573Z,43.40
2019-03-29T17:07:28.666Z,42.61
2019-03-29T17:09:59.825Z,42.81
2019-03-29T17:12:30.002Z,44.29
2019-03-29T17:15:03.655Z,43.83
2019-03-29T17:17:34.359Z,43.64
2019-03-29T17:20:05.704Z,44.99
2019-03-29T17:22:36.506Z,44.16
2019-03-29T17:25:06.647Z,45.57
2019-03-29T17:27:36.728Z,45.19
2019-03-29T17:30:08.778Z,45.53
2019-03-29T17:32:38.946Z,46.39
2019-03-29T17:35:09.048Z,46.23
2019-03-29T17:37:39.450Z,47.11
2019-03-29T17:40:10.124Z,46.79
2019-03-29T17:42:40.210Z,47.00
2019-03-29T17:45:11.434Z,47.64
2019-03-29T17:47:41.518Z,48.04
2019-03-29T17:50:11.810Z,47.35
2019-03-29T17:52:41.994Z,47.69
2019-03-29T17:55:13.673Z,48.05
2019-03-29T17:57:44.154Z,49.60
2019-03-29T18:00:16.782Z,47.56
2019-03-29T18:02:47.335Z,48.34
2019-03-29T18:05:17.859Z,48.14
2019-03-29T18:07:47.947Z,48.75
2019-03-29T18:10:18.038Z,48.62
2019-03-29T18:12:48.631Z,49.68
2019-03-29T18:15:19.179Z,49.46
2019-03-29T18:17:49.276Z,53.92
2019-03-29T18:20:19.554Z,49.16
2019-03-29T18:22:53.109Z,49.83
2019-03-29T18:25:28.786Z,49.16
2019-03-29T18:27:58.854Z,48.35
2019-03-29T18:30:44.095Z,49.54
2019-03-29T18:33:14.175Z,50.21
2019-03-29T18:35:44.662Z,49.48
2019-03-29T18:38:15.147Z,49.50
2019-03-29T18:40:45.255Z,53.00
2019-03-29T18:43:15.424Z,52.42
2019-03-29T18:45:45.609Z,52.34
2019-03-29T18:48:15.720Z,51.94
2019-03-29T18:50:45.838Z,54.06
2019-03-29T18:53:16.032Z,55.81
2019-03-29T18:55:47.127Z,55.99
2019-03-29T18:58:17.549Z,55.76
2019-03-29T19:00:50.431Z,54.31
2019-03-29T19:03:20.518Z,54.28
2019-03-29T19:05:51.211Z,53.41
2019-03-29T19:08:21.609Z,54.04
2019-03-29T19:10:51.723Z,52.64
2019-03-29T19:13:23.359Z,55.09
2019-03-29T19:15:54.519Z,55.24
2019-03-29T19:18:24.624Z,55.54
2019-03-29T19:20:57.982Z,56.31
2019-03-29T19:23:28.171Z,56.04
2019-03-29T19:25:58.455Z,56.93
2019-03-29T19:28:28.716Z,57.04
2019-03-29T19:30:59.630Z,57.96
2019-03-29T19:33:29.788Z,57.21
2019-03-29T19:36:00.001Z,58.92
2019-03-29T19:38:33.711Z,56.59
2019-03-29T19:41:05.476Z,55.83
2019-03-29T19:43:35.720Z,55.30
2019-03-29T19:46:06.043Z,58.59
2019-03-29T19:48:36.211Z,57.07
2019-03-29T19:51:07.357Z,58.76
2019-03-29T19:53:38.043Z,59.57
2019-03-29T19:56:08.201Z,60.48
2019-03-29T19:58:38.304Z,60.46
2019-03-29T20:01:10.033Z,62.60
2019-03-29T20:03:40.283Z,61.59
2019-03-29T20:06:14.429Z,61.42
2019-03-29T20:08:44.507Z,61.51
2019-03-29T20:11:15.047Z,63.80
2019-03-29T20:13:45.219Z,63.65
2019-03-29T20:16:15.483Z,63.99
2019-03-29T20:18:45.607Z,65.58
2019-03-29T20:21:15.698Z,65.71
2019-03-29T20:23:46.205Z,64.62
2019-03-29T20:26:16.328Z,64.78
2019-03-29T20:28:46.420Z,65.34
2019-03-29T20:31:16.653Z,64.78
2019-03-29T20:33:47.442Z,65.90
2019-03-29T20:36:22.698Z,63.49
2019-03-29T20:38:49.482Z,64.80
2019-03-29T20:41:19.660Z,65.79
2019-03-29T20:43:49.842Z,65.79
2019-03-29T20:46:20.588Z,66.90
2019-03-29T20:48:50.678Z,64.41
2019-03-29T20:51:20.796Z,64.97
2019-03-29T20:53:50.942Z,65.44
2019-03-29T20:56:21.485Z,65.59
2019-03-29T20:59:10.493Z,65.82
2019-03-29T21:02:00.118Z,66.54
2019-03-29T21:04:48.247Z,68.46
2019-03-29T21:07:36.373Z,68.09
2019-03-29T21:10:24.406Z,67.71
2019-03-29T21:13:13.068Z,66.99
2019-03-29T21:16:02.128Z,68.19
2019-03-29T21:18:51.365Z,67.95
2019-03-29T21:21:39.874Z,65.78
2019-03-29T21:24:28.349Z,66.45
2019-03-29T21:27:16.867Z,67.54
2019-03-29T21:30:05.558Z,68.07
2019-03-29T21:32:54.556Z,68.29
2019-03-29T21:35:43.090Z,69.75
2019-03-29T21:38:32.085Z,72.63
2019-03-29T21:41:20.373Z,72.02
2019-03-29T21:44:09.403Z,73.39
2019-03-29T21:46:57.914Z,73.80
2019-03-29T21:49:46.257Z,75.24
2019-03-29T21:52:34.655Z,74.24
2019-03-29T21:55:23.665Z,74.53
2019-03-29T21:58:12.647Z,76.42
2019-03-29T22:01:00.681Z,76.29
2019-03-29T22:03:53.357Z,75.27
2019-03-29T22:06:42.134Z,73.42
2019-03-29T22:09:36.877Z,73.93
2019-03-29T22:12:21.004Z,72.99
2019-03-29T22:15:09.390Z,71.46
2019-03-29T22:17:57.481Z,72.25
2019-03-29T22:20:45.770Z,74.43
2019-03-29T22:23:35.040Z,74.00
2019-03-29T22:26:23.726Z,74.55
2019-03-29T22:29:11.947Z,73.88
2019-03-29T22:32:24.347Z,71.78
2019-03-29T22:35:15.347Z,73.26
2019-03-29T22:38:05.420Z,71.86
2019-03-29T22:40:54.326Z,72.49
2019-03-29T22:43:43.192Z,73.93
2019-03-29T22:46:32.356Z,73.42
2019-03-29T22:49:21.124Z,71.66
2019-03-29T22:52:09.171Z,72.14
2019-03-29T22:54:57.334Z,73.33
2019-03-29T22:57:47.225Z,72.95
2019-03-29T23:00:39.356Z,73.39
2019-03-29T23:03:27.448Z,72.33
2019-03-29T23:06:16.234Z,72.66
2019-03-29T23:09:05.828Z,72.71
2019-03-29T23:11:53.941Z,74.25
2019-03-29T23:14:42.061Z,73.93
2019-03-29T23:17:30.847Z,73.56
2019-03-29T23:20:19.663Z,74.05
2019-03-29T23:23:08.253Z,72.86
2019-03-29T23:25:57.181Z,72.56
2019-03-29T23:28:45.522Z,73.08
2019-03-29T23:31:34.667Z,73.43
2019-03-29T23:34:23.696Z,72.49
2019-03-29T23:37:12.566Z,73.79
2019-03-29T23:40:01.074Z,74.26
2019-03-29T23:42:49.218Z,73.81
2019-03-29T23:45:37.626Z,73.50
2019-03-29T23:48:28.244Z,76.10
2019-03-29T23:51:17.014Z,73.07
2019-03-29T23:54:05.699Z,73.44
2019-03-29T23:56:54.579Z,73.30
2019-03-29T23:59:43.505Z,74.25
